Time;durP1;ratioP1;P1;durP2;ratioP2;P2;SDS_P1;SDS_P2;PMS_P1;PMS_P2;Temp;Humidity;BMP_temperature;BMP_pressure;BME280_temperature;BME280_humidity;BME280_pressure;Samples;Min_cycle;Max_cycle;Signal;HPM_P1;HPM_P2
2022/04/03 00:02:04;;;;;;;4.55;1.63;;;;;;;;;;5068981;28;21027;-17
2022/04/03 00:04:32;;;;;;;1.95;1.08;;;;;;;;;;5070715;28;20240;-17
2022/04/03 00:07:00;;;;;;;3.85;1.40;;;;;;;;;;5071727;28;20224;-17
2022/04/03 00:09:28;;;;;;;3.55;1.27;;;;;;;;;;5071725;28;20233;-17
2022/04/03 00:11:56;;;;;;;4.82;1.35;;;;;;;;;;5071619;28;20225;-17
2022/04/03 00:14:24;;;;;;;2.58;1.13;;;;;;;;;;5069578;28;20234;-17
2022/04/03 00:16:51;;;;;;;3.22;1.13;;;;;;;;;;5067224;28;20731;-17
2022/04/03 00:19:18;;;;;;;6.82;1.45;;;;;;;;;;5061577;28;20230;-17
2022/04/03 00:21:46;;;;;;;4.10;1.50;;;;;;;;;;5073956;28;20739;-17
2022/04/03 00:24:13;;;;;;;3.15;1.30;;;;;;;;;;5079739;28;20236;-17
2022/04/03 00:26:41;;;;;;;3.10;1.30;;;;;;;;;;5081514;28;20703;-17
2022/04/03 00:29:09;;;;;;;2.35;1.30;;;;;;;;;;5085206;28;20236;-17
2022/04/03 00:31:37;;;;;;;5.32;1.13;;;;;;;;;;5078104;28;20987;-17
2022/04/03 00:34:04;;;;;;;2.67;1.20;;;;;;;;;;5077468;28;20323;-17
2022/04/03 00:36:32;;;;;;;2.00;1.10;;;;;;;;;;5080068;28;20229;-17
2022/04/03 00:38:59;;;;;;;2.42;1.02;;;;;;;;;;5080853;28;20224;-17
2022/04/03 00:41:26;;;;;;;1.95;1.17;;;;;;;;;;5081090;28;20803;-17
2022/04/03 00:43:54;;;;;;;2.40;1.15;;;;;;;;;;5082496;28;20229;-17
2022/04/03 00:46:22;;;;;;;1.77;1.35;;;;;;;;;;5076867;28;20246;-17
2022/04/03 00:48:50;;;;;;;2.10;1.00;;;;;;;;;;5078637;28;20263;-17
2022/04/03 00:51:18;;;;;;;4.22;1.55;;;;;;;;;;5081007;28;20260;-17
2022/04/03 00:53:45;;;;;;;1.40;1.00;;;;;;;;;;5080760;28;20228;-17
2022/04/03 00:56:13;;;;;;;3.15;1.10;;;;;;;;;;5081425;28;20235;-17
2022/04/03 00:58:40;;;;;;;1.90;1.17;;;;;;;;;;5081730;28;20221;-17
2022/04/03 01:01:07;;;;;;;1.55;1.05;;;;;;;;;;5077463;28;20254;-17
2022/04/03 01:03:36;;;;;;;1.25;1.00;;;;;;;;;;5075856;28;20224;-17
2022/04/03 01:06:03;;;;;;;0.98;0.80;;;;;;;;;;5075909;28;20231;-17
2022/04/03 01:08:31;;;;;;;1.63;1.00;;;;;;;;;;5080764;28;20616;-17
2022/04/03 01:10:58;;;;;;;1.83;1.00;;;;;;;;;;5078578;28;20260;-17
2022/04/03 01:13:26;;;;;;;2.65;1.33;;;;;;;;;;5081303;28;20967;-17
2022/04/03 01:15:53;;;;;;;3.15;1.27;;;;;;;;;;5077989;28;20252;-17
2022/04/03 01:18:23;;;;;;;1.10;0.90;;;;;;;;;;5067971;28;20225;-17
2022/04/03 01:20:52;;;;;;;1.60;0.98;;;;;;;;;;5074990;28;20233;-17
2022/04/03 01:23:20;;;;;;;2.03;0.95;;;;;;;;;;5068421;28;20236;-17
2022/04/03 01:25:48;;;;;;;2.08;1.20;;;;;;;;;;5076595;28;20715;-17
2022/04/03 01:28:16;;;;;;;1.95;0.75;;;;;;;;;;5076192;28;20233;-17
2022/04/03 01:30:44;;;;;;;1.75;1.00;;;;;;;;;;5076592;28;20318;-17
2022/04/03 01:33:11;;;;;;;1.50;1.10;;;;;;;;;;5076331;28;20279;-17
2022/04/03 01:35:39;;;;;;;0.95;0.85;;;;;;;;;;5078943;28;21022;-17
2022/04/03 01:38:06;;;;;;;1.75;0.70;;;;;;;;;;5077775;28;20229;-17
2022/04/03 01:40:35;;;;;;;1.95;1.10;;;;;;;;;;5071308;28;20234;-17
2022/04/03 01:43:04;;;;;;;1.50;0.90;;;;;;;;;;5073885;28;20225;-17
2022/04/03 01:45:32;;;;;;;1.20;0.98;;;;;;;;;;5078530;28;20229;-17
2022/04/03 01:47:59;;;;;;;2.08;1.00;;;;;;;;;;5072770;28;20232;-17
2022/04/03 01:50:27;;;;;;;1.33;0.90;;;;;;;;;;5075336;28;20232;-17
2022/04/03 01:52:54;;;;;;;1.95;0.88;;;;;;;;;;5075959;28;20832;-17
2022/04/03 01:55:23;;;;;;;1.23;0.80;;;;;;;;;;5085728;28;20240;-17
2022/04/03 01:57:50;;;;;;;1.50;0.88;;;;;;;;;;5081156;28;20236;-17
2022/04/03 02:00:19;;;;;;;2.05;1.00;;;;;;;;;;5081067;28;20240;-17
2022/04/03 02:02:46;;;;;;;1.73;1.05;;;;;;;;;;5079036;28;20221;-16
2022/04/03 02:05:14;;;;;;;1.90;0.90;;;;;;;;;;5085222;28;20225;-17
2022/04/03 02:07:41;;;;;;;1.30;1.00;;;;;;;;;;5078069;28;20260;-17
2022/04/03 02:10:11;;;;;;;1.42;0.90;;;;;;;;;;5085617;28;21155;-17
2022/04/03 02:12:39;;;;;;;2.05;0.90;;;;;;;;;;5078317;28;20213;-17
2022/04/03 02:15:07;;;;;;;1.98;0.75;;;;;;;;;;5079873;28;20224;-17
2022/04/03 02:17:35;;;;;;;0.93;0.82;;;;;;;;;;5070332;28;21017;-17
2022/04/03 02:20:03;;;;;;;1.85;0.70;;;;;;;;;;5074575;28;20237;-17
2022/04/03 02:22:30;;;;;;;1.75;1.20;;;;;;;;;;5068767;28;20243;-17
2022/04/03 02:24:58;;;;;;;1.33;0.80;;;;;;;;;;5072640;28;20235;-17
2022/04/03 02:27:25;;;;;;;3.17;0.90;;;;;;;;;;5068677;28;20244;-17
2022/04/03 02:29:52;;;;;;;2.33;0.90;;;;;;;;;;5064898;28;20747;-17
2022/04/03 02:32:21;;;;;;;3.13;0.80;;;;;;;;;;5070572;28;20217;-17
2022/04/03 02:34:49;;;;;;;1.30;0.80;;;;;;;;;;5066593;28;20246;-17
2022/04/03 02:37:17;;;;;;;1.33;0.77;;;;;;;;;;5070557;28;20221;-17
2022/04/03 02:39:45;;;;;;;1.48;0.85;;;;;;;;;;5071424;28;20233;-17
2022/04/03 02:42:12;;;;;;;2.35;0.93;;;;;;;;;;5069130;28;20344;-17
2022/04/03 02:44:40;;;;;;;2.15;0.95;;;;;;;;;;5067816;28;20226;-17
2022/04/03 02:47:08;;;;;;;1.42;0.88;;;;;;;;;;5070916;28;20240;-17
2022/04/03 02:49:35;;;;;;;4.10;0.90;;;;;;;;;;5066008;28;20234;-17
2022/04/03 02:52:04;;;;;;;0.95;0.68;;;;;;;;;;5072598;28;20222;-17
2022/04/03 02:54:33;;;;;;;1.50;0.95;;;;;;;;;;5070762;28;20611;-17
2022/04/03 02:57:00;;;;;;;1.38;1.00;;;;;;;;;;5072045;28;20225;-17
2022/04/03 02:59:27;;;;;;;1.58;1.00;;;;;;;;;;5068999;28;20673;-17
2022/04/03 03:01:55;;;;;;;3.95;1.13;;;;;;;;;;5072772;28;20233;-17
2022/04/03 03:04:22;;;;;;;1.20;0.80;;;;;;;;;;5066285;28;20241;-17
2022/04/03 03:06:49;;;;;;;1.23;0.70;;;;;;;;;;5070403;28;20237;-17
2022/04/03 03:09:18;;;;;;;1.63;0.82;;;;;;;;;;5072717;28;20239;-17
2022/04/03 03:11:45;;;;;;;1.63;1.00;;;;;;;;;;5069533;28;20939;-17
2022/04/03 03:14:13;;;;;;;2.80;0.90;;;;;;;;;;5072574;28;21194;-17
2022/04/03 03:16:40;;;;;;;2.70;1.00;;;;;;;;;;5065314;28;20233;-17
2022/04/03 03:19:08;;;;;;;1.25;0.70;;;;;;;;;;5071755;28;20734;-17
2022/04/03 03:21:36;;;;;;;1.55;1.10;;;;;;;;;;5070743;28;20247;-17
2022/04/03 03:24:03;;;;;;;2.30;1.10;;;;;;;;;;5081193;28;20234;-17
2022/04/03 03:26:32;;;;;;;2.45;1.02;;;;;;;;;;5084295;28;20233;-17
2022/04/03 03:28:59;;;;;;;1.88;0.98;;;;;;;;;;5080811;28;20229;-17
2022/04/03 03:31:27;;;;;;;1.92;1.25;;;;;;;;;;5083719;28;20226;-17
2022/04/03 03:33:54;;;;;;;2.35;1.25;;;;;;;;;;5079640;28;21039;-17
2022/04/03 03:36:21;;;;;;;1.50;1.13;;;;;;;;;;5081120;28;20233;-17
2022/04/03 03:38:49;;;;;;;1.10;1.00;;;;;;;;;;5082277;28;20260;-17
2022/04/03 03:41:16;;;;;;;1.45;0.90;;;;;;;;;;5079415;28;20328;-17
2022/04/03 03:43:45;;;;;;;1.65;0.88;;;;;;;;;;5080517;28;20731;-17
2022/04/03 03:46:12;;;;;;;2.13;0.95;;;;;;;;;;5084970;28;20231;-17
2022/04/03 03:48:39;;;;;;;1.73;1.10;;;;;;;;;;5082204;28;20725;-17
2022/04/03 03:51:07;;;;;;;1.73;0.93;;;;;;;;;;5079763;28;20225;-17
2022/04/03 03:53:34;;;;;;;1.50;1.10;;;;;;;;;;5078817;28;20722;-17
2022/04/03 03:56:01;;;;;;;1.80;1.15;;;;;;;;;;5080275;28;20243;-17
2022/04/03 03:58:29;;;;;;;1.63;1.15;;;;;;;;;;5082179;28;20232;-17
2022/04/03 04:00:57;;;;;;;1.20;1.10;;;;;;;;;;5081198;28;20239;-17
2022/04/03 04:03:25;;;;;;;1.30;0.95;;;;;;;;;;5082373;28;20225;-17
2022/04/03 04:05:52;;;;;;;1.45;1.00;;;;;;;;;;5080998;28;20659;-17
2022/04/03 04:08:19;;;;;;;1.73;1.10;;;;;;;;;;5081024;28;21021;-17
2022/04/03 04:10:47;;;;;;;1.23;0.95;;;;;;;;;;5083528;28;20221;-17
2022/04/03 04:13:14;;;;;;;1.83;1.15;;;;;;;;;;5077227;28;20235;-17
2022/04/03 04:15:42;;;;;;;3.35;1.48;;;;;;;;;;5082780;28;20240;-17
2022/04/03 04:18:10;;;;;;;3.38;1.15;;;;;;;;;;5080727;28;20287;-17
2022/04/03 04:20:39;;;;;;;1.42;1.05;;;;;;;;;;5082186;28;20237;-17
2022/04/03 04:23:06;;;;;;;1.92;0.95;;;;;;;;;;5076870;28;20240;-17
2022/04/03 04:25:33;;;;;;;3.08;1.00;;;;;;;;;;5077619;28;20313;-17
2022/04/03 04:28:01;;;;;;;1.30;1.00;;;;;;;;;;5080358;28;20734;-17
2022/04/03 04:30:28;;;;;;;3.15;1.20;;;;;;;;;;5083634;28;20229;-17
2022/04/03 04:32:55;;;;;;;2.05;1.10;;;;;;;;;;5080100;28;20716;-17
2022/04/03 04:35:24;;;;;;;1.85;1.23;;;;;;;;;;5075029;28;20249;-17
2022/04/03 04:37:51;;;;;;;1.45;1.00;;;;;;;;;;5079579;28;20707;-17
2022/04/03 04:40:19;;;;;;;1.17;0.95;;;;;;;;;;5080182;28;20228;-17
2022/04/03 04:42:47;;;;;;;1.88;1.08;;;;;;;;;;5079776;28;20965;-17
2022/04/03 04:45:15;;;;;;;2.35;1.13;;;;;;;;;;5079662;28;20995;-17
2022/04/03 04:47:44;;;;;;;1.95;1.30;;;;;;;;;;5078715;28;20311;-17
2022/04/03 04:50:14;;;;;;;1.70;1.20;;;;;;;;;;5080315;28;20280;-17
2022/04/03 04:52:43;;;;;;;1.75;1.40;;;;;;;;;;5077025;28;20228;-17
2022/04/03 04:55:10;;;;;;;1.25;0.90;;;;;;;;;;5078248;28;20243;-17
2022/04/03 04:57:37;;;;;;;1.00;0.90;;;;;;;;;;5076046;28;20222;-17
2022/04/03 05:00:06;;;;;;;1.98;1.35;;;;;;;;;;5070709;28;20230;-17
2022/04/03 05:02:33;;;;;;;3.33;1.10;;;;;;;;;;5078707;28;20231;-17
2022/04/03 05:05:00;;;;;;;1.58;1.02;;;;;;;;;;5077514;28;20221;-17
2022/04/03 05:07:28;;;;;;;1.67;1.33;;;;;;;;;;5082366;28;20272;-17
2022/04/03 05:09:56;;;;;;;1.27;1.08;;;;;;;;;;5078772;28;20232;-17
2022/04/03 05:12:24;;;;;;;1.83;1.33;;;;;;;;;;5079476;28;20707;-17
2022/04/03 05:14:51;;;;;;;1.48;0.98;;;;;;;;;;5076242;28;20236;-17
2022/04/03 05:17:18;;;;;;;1.45;1.10;;;;;;;;;;5081308;28;20228;-17
2022/04/03 05:19:46;;;;;;;2.67;1.17;;;;;;;;;;5074891;28;20233;-17
2022/04/03 05:22:13;;;;;;;1.58;1.25;;;;;;;;;;5044331;28;1023168;-17
2022/04/03 05:24:40;;;;;;;1.52;1.00;;;;;;;;;;5079524;28;20241;-17
2022/04/03 05:27:09;;;;;;;1.17;1.00;;;;;;;;;;5085770;28;21020;-17
2022/04/03 05:29:36;;;;;;;2.20;1.20;;;;;;;;;;5079656;28;20229;-17
2022/04/03 05:32:04;;;;;;;1.58;1.00;;;;;;;;;;5080317;28;20984;-17
2022/04/03 05:34:31;;;;;;;1.98;1.13;;;;;;;;;;5082047;28;20721;-17
2022/04/03 05:36:59;;;;;;;4.72;1.30;;;;;;;;;;5081915;28;20724;-17
2022/04/03 05:39:26;;;;;;;1.42;1.10;;;;;;;;;;5084578;28;20240;-17
2022/04/03 05:41:55;;;;;;;2.92;1.40;;;;;;;;;;5085429;28;20240;-17
2022/04/03 05:44:24;;;;;;;2.75;1.10;;;;;;;;;;5083641;28;20209;-17
2022/04/03 05:46:51;;;;;;;1.73;1.13;;;;;;;;;;5086567;28;20237;-17
2022/04/03 05:49:19;;;;;;;2.55;1.17;;;;;;;;;;5080390;28;20308;-17
2022/04/03 05:51:46;;;;;;;2.20;1.33;;;;;;;;;;5083738;28;20232;-17
2022/04/03 05:54:13;;;;;;;2.50;1.27;;;;;;;;;;5084149;28;20237;-17
2022/04/03 05:56:41;;;;;;;1.98;1.10;;;;;;;;;;5083008;28;20245;-17
2022/04/03 05:59:08;;;;;;;2.08;1.10;;;;;;;;;;5080577;28;20921;-17
2022/04/03 06:01:37;;;;;;;2.75;1.30;;;;;;;;;;5080815;28;20241;-17
2022/04/03 06:04:04;;;;;;;2.47;1.00;;;;;;;;;;5080477;28;20280;-17
2022/04/03 06:06:32;;;;;;;2.22;1.00;;;;;;;;;;5082613;28;20241;-17
2022/04/03 06:08:59;;;;;;;2.58;1.60;;;;;;;;;;5082353;28;20233;-17
2022/04/03 06:11:26;;;;;;;1.77;1.30;;;;;;;;;;5084331;28;20256;-17
2022/04/03 06:13:54;;;;;;;1.40;1.00;;;;;;;;;;5081966;28;20230;-17
2022/04/03 06:16:21;;;;;;;1.48;1.10;;;;;;;;;;5081472;28;20244;-17
2022/04/03 06:18:52;;;;;;;1.80;1.35;;;;;;;;;;5084615;28;20232;-17
2022/04/03 06:21:20;;;;;;;1.20;1.10;;;;;;;;;;5080677;28;20805;-17
2022/04/03 06:23:47;;;;;;;1.52;0.90;;;;;;;;;;5081341;28;20228;-17
2022/04/03 06:26:15;;;;;;;1.88;1.10;;;;;;;;;;5077360;28;20237;-17
2022/04/03 06:28:42;;;;;;;1.92;1.17;;;;;;;;;;5076426;28;20229;-17
2022/04/03 06:31:10;;;;;;;2.40;1.38;;;;;;;;;;5072398;28;20227;-17
2022/04/03 06:33:37;;;;;;;1.63;1.05;;;;;;;;;;5072706;28;20240;-17
2022/04/03 06:36:06;;;;;;;1.35;1.15;;;;;;;;;;5072478;28;20241;-17
2022/04/03 06:38:34;;;;;;;1.50;1.08;;;;;;;;;;5074907;28;20228;-17
2022/04/03 06:41:01;;;;;;;1.50;1.10;;;;;;;;;;5080452;28;20250;-17
2022/04/03 06:43:29;;;;;;;2.17;1.40;;;;;;;;;;5080549;28;20715;-17
2022/04/03 06:45:56;;;;;;;1.70;1.10;;;;;;;;;;5076794;28;20237;-17
2022/04/03 06:48:24;;;;;;;3.08;1.25;;;;;;;;;;5078244;28;20229;-17
2022/04/03 06:50:51;;;;;;;1.17;1.05;;;;;;;;;;5071231;28;20225;-17
2022/04/03 06:53:20;;;;;;;1.70;1.27;;;;;;;;;;5080121;28;20233;-17
2022/04/03 06:55:48;;;;;;;1.77;1.25;;;;;;;;;;5076538;28;20232;-17
2022/04/03 06:58:15;;;;;;;3.10;1.17;;;;;;;;;;5076354;28;20232;-17
2022/04/03 07:00:43;;;;;;;7.75;1.65;;;;;;;;;;5075889;28;20283;-17
2022/04/03 07:03:10;;;;;;;8.20;1.33;;;;;;;;;;5073788;28;20233;-17
2022/04/03 07:05:38;;;;;;;11.85;1.63;;;;;;;;;;5075426;28;20229;-17
2022/04/03 07:08:06;;;;;;;4.82;1.20;;;;;;;;;;5073225;28;20272;-17
2022/04/03 07:10:35;;;;;;;3.35;1.10;;;;;;;;;;5078969;28;20236;-17
2022/04/03 07:13:02;;;;;;;2.20;0.98;;;;;;;;;;5074088;28;20230;-17
2022/04/03 07:15:30;;;;;;;2.00;1.08;;;;;;;;;;5079331;28;20233;-17
2022/04/03 07:17:57;;;;;;;3.65;1.20;;;;;;;;;;5074771;28;20594;-17
2022/04/03 07:20:24;;;;;;;2.47;1.33;;;;;;;;;;5074448;28;20242;-17
2022/04/03 07:22:52;;;;;;;4.40;1.20;;;;;;;;;;5076306;28;20244;-17
2022/04/03 07:25:21;;;;;;;3.60;1.08;;;;;;;;;;5081042;28;20234;-17
2022/04/03 07:27:50;;;;;;;7.55;1.20;;;;;;;;;;5075137;28;20240;-17
2022/04/03 07:30:17;;;;;;;4.05;1.38;;;;;;;;;;5074518;28;20233;-17
2022/04/03 07:32:44;;;;;;;7.78;1.10;;;;;;;;;;5077217;28;20240;-17
2022/04/03 07:35:12;;;;;;;7.78;1.20;;;;;;;;;;5078050;28;20256;-17
2022/04/03 07:37:40;;;;;;;1.30;1.00;;;;;;;;;;5079700;28;20240;-17
2022/04/03 07:40:08;;;;;;;4.07;1.05;;;;;;;;;;5080909;28;20711;-17
2022/04/03 07:42:35;;;;;;;3.08;1.10;;;;;;;;;;5072598;28;20233;-17
2022/04/03 07:45:05;;;;;;;6.75;1.35;;;;;;;;;;5076362;28;20451;-17
2022/04/03 07:47:33;;;;;;;12.35;1.50;;;;;;;;;;5070430;28;20424;-17
2022/04/03 07:50:03;;;;;;;8.15;1.00;;;;;;;;;;5082307;28;20802;-17
2022/04/03 07:52:32;;;;;;;6.97;1.13;;;;;;;;;;5070039;28;20238;-17
2022/04/03 07:55:00;;;;;;;6.38;1.48;;;;;;;;;;5077880;28;20225;-17
2022/04/03 07:57:27;;;;;;;5.30;1.13;;;;;;;;;;5083097;28;20237;-17
2022/04/03 07:59:54;;;;;;;5.93;1.20;;;;;;;;;;5081868;28;20264;-17
2022/04/03 08:02:23;;;;;;;4.43;1.10;;;;;;;;;;5081052;28;20229;-17
2022/04/03 08:04:50;;;;;;;4.70;1.33;;;;;;;;;;5071359;28;20229;-17
2022/04/03 08:07:18;;;;;;;5.15;1.15;;;;;;;;;;5081613;28;20225;-17
2022/04/03 08:09:46;;;;;;;3.22;1.20;;;;;;;;;;5072919;28;20230;-17
2022/04/03 08:12:14;;;;;;;6.10;1.20;;;;;;;;;;5079422;28;20439;-17
2022/04/03 08:14:42;;;;;;;8.10;1.33;;;;;;;;;;5078444;28;20229;-17
2022/04/03 08:17:09;;;;;;;2.78;0.80;;;;;;;;;;5079858;28;20233;-17
2022/04/03 08:19:38;;;;;;;4.50;1.20;;;;;;;;;;5080198;28;20703;-17
2022/04/03 08:22:05;;;;;;;6.45;1.15;;;;;;;;;;5077123;28;20243;-17
2022/04/03 08:24:32;;;;;;;6.13;0.98;;;;;;;;;;5080123;28;20221;-17
2022/04/03 08:27:00;;;;;;;4.18;0.90;;;;;;;;;;5078010;28;20234;-17
2022/04/03 08:29:28;;;;;;;3.85;1.10;;;;;;;;;;5082381;28;20440;-17
2022/04/03 08:31:55;;;;;;;5.50;1.30;;;;;;;;;;5071495;28;20417;-17
2022/04/03 08:34:23;;;;;;;4.18;1.00;;;;;;;;;;5077903;28;20990;-17
2022/04/03 08:37:11;;;;;;;3.97;0.80;;;;;;;;;;5080716;28;20233;-17
2022/04/03 08:39:38;;;;;;;7.78;1.20;;;;;;;;;;5079647;28;20264;-17
2022/04/03 08:42:05;;;;;;;5.38;0.95;;;;;;;;;;5079572;28;20229;-17
2022/04/03 08:44:33;;;;;;;5.60;1.30;;;;;;;;;;5075330;28;20407;-17
2022/04/03 08:47:00;;;;;;;7.47;1.23;;;;;;;;;;5082708;28;20340;-17
2022/04/03 08:49:28;;;;;;;7.35;1.13;;;;;;;;;;5075554;28;20775;-17
2022/04/03 08:51:55;;;;;;;13.05;1.02;;;;;;;;;;5080787;28;20229;-16
2022/04/03 08:54:23;;;;;;;10.52;1.55;;;;;;;;;;5077815;28;20700;-17
2022/04/03 08:56:51;;;;;;;15.38;1.38;;;;;;;;;;5075403;28;20221;-17
2022/04/03 08:59:18;;;;;;;8.75;1.25;;;;;;;;;;5079051;28;21019;-17
2022/04/03 09:01:45;;;;;;;16.42;1.08;;;;;;;;;;5076766;28;20229;-17
2022/04/03 09:04:13;;;;;;;4.88;0.82;;;;;;;;;;5079602;28;20233;-17
2022/04/03 09:06:53;;;;;;;3.28;0.90;;;;;;;;;;5080797;28;20247;-17
2022/04/03 09:09:21;;;;;;;4.20;0.85;;;;;;;;;;5081428;28;20229;-17
2022/04/03 09:11:50;;;;;;;6.15;1.00;;;;;;;;;;5079201;28;20775;-17
2022/04/03 09:14:17;;;;;;;1.80;0.70;;;;;;;;;;5080902;28;20976;-17
2022/04/03 09:16:44;;;;;;;4.65;0.93;;;;;;;;;;5077786;28;20232;-17
2022/04/03 09:19:12;;;;;;;3.78;0.70;;;;;;;;;;5077070;28;20268;-17
2022/04/03 09:21:39;;;;;;;3.70;0.80;;;;;;;;;;5071043;28;20302;-17
2022/04/03 09:24:08;;;;;;;3.65;0.60;;;;;;;;;;5079628;28;20226;-17
2022/04/03 09:26:36;;;;;;;2.45;0.77;;;;;;;;;;5075001;28;20237;-17
2022/04/03 09:29:08;;;;;;;1.13;0.52;;;;;;;;;;5071234;28;20648;-17
2022/04/03 09:31:35;;;;;;;5.28;0.90;;;;;;;;;;5077907;28;20229;-17
2022/04/03 09:34:03;;;;;;;2.45;0.70;;;;;;;;;;5070690;28;20283;-17
2022/04/03 09:36:31;;;;;;;3.22;0.60;;;;;;;;;;5078878;28;20237;-17
2022/04/03 09:39:06;;;;;;;2.78;1.02;;;;;;;;;;5080848;28;20276;-17
2022/04/03 09:41:34;;;;;;;1.27;0.50;;;;;;;;;;5077858;28;20228;-17
2022/04/03 09:44:03;;;;;;;4.60;0.70;;;;;;;;;;5077805;28;20699;-17
2022/04/03 09:46:31;;;;;;;2.20;0.70;;;;;;;;;;5073269;28;20244;-17
2022/04/03 09:48:59;;;;;;;3.45;0.65;;;;;;;;;;5079602;28;20618;-17
2022/04/03 09:51:27;;;;;;;3.33;0.85;;;;;;;;;;5075946;28;20240;-17
2022/04/03 09:53:56;;;;;;;1.00;0.50;;;;;;;;;;5077358;28;20240;-17
2022/04/03 09:56:28;;;;;;;2.47;0.77;;;;;;;;;;5076998;28;20244;-17
2022/04/03 09:58:57;;;;;;;3.90;0.55;;;;;;;;;;5078405;28;20240;-17
2022/04/03 10:01:26;;;;;;;1.48;0.50;;;;;;;;;;5078519;28;20229;-17
2022/04/03 10:03:56;;;;;;;1.52;0.50;;;;;;;;;;5077489;28;20235;-17
2022/04/03 10:06:24;;;;;;;2.03;0.70;;;;;;;;;;5076564;28;20244;-17
2022/04/03 10:08:51;;;;;;;2.40;0.85;;;;;;;;;;5073388;28;20239;-17
2022/04/03 10:11:18;;;;;;;1.92;0.50;;;;;;;;;;5081760;28;20229;-17
2022/04/03 10:13:46;;;;;;;1.33;0.60;;;;;;;;;;5080578;28;20234;-17
2022/04/03 10:16:13;;;;;;;2.45;0.50;;;;;;;;;;5083645;28;20229;-17
2022/04/03 10:18:41;;;;;;;0.75;0.40;;;;;;;;;;5084811;28;20232;-17
2022/04/03 10:21:12;;;;;;;0.73;0.55;;;;;;;;;;5078287;28;20236;-17
2022/04/03 10:23:40;;;;;;;0.95;0.47;;;;;;;;;;5082466;28;20677;-17
2022/04/03 10:26:07;;;;;;;1.13;0.40;;;;;;;;;;5079777;28;20699;-17
2022/04/03 10:28:35;;;;;;;0.40;0.40;;;;;;;;;;5081795;28;20229;-17
2022/04/03 10:31:06;;;;;;;0.60;0.40;;;;;;;;;;5074277;28;20225;-17
2022/04/03 10:33:37;;;;;;;3.22;0.52;;;;;;;;;;5081319;28;20240;-17
2022/04/03 10:36:05;;;;;;;2.80;0.50;;;;;;;;;;5074592;28;20232;-17
2022/04/03 10:38:37;;;;;;;0.80;0.40;;;;;;;;;;5076698;28;21012;-17
2022/04/03 10:41:05;;;;;;;1.85;0.30;;;;;;;;;;5077912;28;20229;-17
2022/04/03 10:43:37;;;;;;;2.20;0.50;;;;;;;;;;5080402;28;20225;-17
2022/04/03 10:46:04;;;;;;;2.45;0.70;;;;;;;;;;5077781;28;20734;-17
2022/04/03 10:48:32;;;;;;;1.33;0.30;;;;;;;;;;5076895;28;20265;-17
2022/04/03 10:51:00;;;;;;;1.25;0.30;;;;;;;;;;5077951;28;20226;-17
2022/04/03 10:53:30;;;;;;;0.50;0.30;;;;;;;;;;5079815;28;20730;-17
2022/04/03 10:55:59;;;;;;;0.93;0.40;;;;;;;;;;5081171;28;20228;-17
2022/04/03 10:58:37;;;;;;;0.65;0.30;;;;;;;;;;5084903;28;20241;-17
2022/04/03 11:01:05;;;;;;;2.95;0.55;;;;;;;;;;5070909;28;20233;-17
2022/04/03 11:03:35;;;;;;;0.70;0.40;;;;;;;;;;5085199;28;20237;-17
2022/04/03 11:06:18;;;;;;;0.80;0.40;;;;;;;;;;5073633;28;20229;-17
2022/04/03 11:08:54;;;;;;;1.25;0.43;;;;;;;;;;5083586;28;20228;-17
2022/04/03 11:11:32;;;;;;;1.55;0.40;;;;;;;;;;5080091;28;20235;-17
2022/04/03 11:13:59;;;;;;;1.17;0.40;;;;;;;;;;5084240;28;20275;-17
2022/04/03 11:16:26;;;;;;;0.70;0.30;;;;;;;;;;5082256;28;20221;-17
2022/04/03 11:18:54;;;;;;;0.63;0.30;;;;;;;;;;5082280;28;20267;-17
2022/04/03 11:21:21;;;;;;;2.03;0.40;;;;;;;;;;5067280;28;20238;-17
2022/04/03 11:23:49;;;;;;;0.65;0.35;;;;;;;;;;5071278;28;20237;-17
2022/04/03 11:26:16;;;;;;;1.63;0.50;;;;;;;;;;5072489;28;20303;-17
2022/04/03 11:28:45;;;;;;;0.70;0.32;;;;;;;;;;5069427;28;20229;-17
2022/04/03 11:31:13;;;;;;;1.25;0.40;;;;;;;;;;5072601;28;20229;-17
2022/04/03 11:33:40;;;;;;;0.45;0.30;;;;;;;;;;5070802;28;20276;-17
2022/04/03 11:36:08;;;;;;;1.20;0.40;;;;;;;;;;5073043;28;20217;-17
2022/04/03 11:38:36;;;;;;;0.75;0.30;;;;;;;;;;5062689;28;20747;-17
2022/04/03 11:41:04;;;;;;;0.82;0.30;;;;;;;;;;5068397;28;20244;-17
2022/04/03 11:43:32;;;;;;;0.95;0.30;;;;;;;;;;5071440;28;21018;-17
2022/04/03 11:46:01;;;;;;;1.23;0.45;;;;;;;;;;5067146;28;20232;-17
2022/04/03 11:48:29;;;;;;;2.67;0.30;;;;;;;;;;5072372;28;21017;-17
2022/04/03 11:51:03;;;;;;;0.95;0.35;;;;;;;;;;5065380;28;20267;-17
2022/04/03 11:53:30;;;;;;;0.85;0.38;;;;;;;;;;5072362;28;20241;-17
2022/04/03 11:56:04;;;;;;;0.55;0.30;;;;;;;;;;5071332;28;20688;-17
2022/04/03 11:58:32;;;;;;;1.50;0.30;;;;;;;;;;5072050;28;20229;-17
2022/04/03 12:01:00;;;;;;;0.50;0.20;;;;;;;;;;5070782;28;20233;-17
2022/04/03 12:03:28;;;;;;;0.75;0.28;;;;;;;;;;5071598;28;20610;-17
2022/04/03 12:06:09;;;;;;;1.40;0.28;;;;;;;;;;5071502;28;20700;-17
2022/04/03 12:08:37;;;;;;;0.88;0.40;;;;;;;;;;5065710;28;20754;-17
2022/04/03 12:11:14;;;;;;;0.90;0.30;;;;;;;;;;5067895;28;20226;-17
2022/04/03 12:13:42;;;;;;;0.93;0.40;;;;;;;;;;5067873;28;20240;-17
2022/04/03 12:16:10;;;;;;;0.35;0.30;;;;;;;;;;5070730;28;20229;-17
2022/04/03 12:18:47;;;;;;;1.70;0.30;;;;;;;;;;5067108;28;20701;-17
2022/04/03 12:21:14;;;;;;;0.80;0.30;;;;;;;;;;5065424;28;20295;-17
2022/04/03 12:23:56;;;;;;;0.82;0.30;;;;;;;;;;5082351;28;20229;-17
2022/04/03 12:26:24;;;;;;;1.20;0.40;;;;;;;;;;5080579;28;20324;-17
2022/04/03 12:28:51;;;;;;;0.43;0.20;;;;;;;;;;5077006;28;20237;-17
2022/04/03 12:31:25;;;;;;;1.23;0.30;;;;;;;;;;5078880;28;20239;-17
2022/04/03 12:34:03;;;;;;;1.17;0.30;;;;;;;;;;5080948;28;20238;-17
2022/04/03 12:36:35;;;;;;;0.50;0.30;;;;;;;;;;5081295;28;20235;-17
2022/04/03 12:39:03;;;;;;;1.25;0.30;;;;;;;;;;5075441;28;20712;-17
2022/04/03 12:41:30;;;;;;;1.35;0.40;;;;;;;;;;5079927;28;20245;-17
2022/04/03 12:43:57;;;;;;;0.30;0.25;;;;;;;;;;5081516;28;20230;-17
2022/04/03 12:46:26;;;;;;;0.25;0.20;;;;;;;;;;5081244;28;20231;-17
2022/04/03 12:48:53;;;;;;;2.30;0.43;;;;;;;;;;5080161;28;20229;-17
2022/04/03 12:51:21;;;;;;;1.25;0.40;;;;;;;;;;5079693;28;20324;-17
2022/04/03 12:53:51;;;;;;;1.02;0.30;;;;;;;;;;5082275;28;20229;-17
2022/04/03 12:56:18;;;;;;;0.73;0.50;;;;;;;;;;5079961;28;20233;-17
2022/04/03 12:58:50;;;;;;;0.35;0.20;;;;;;;;;;5080475;28;20700;-17
2022/04/03 13:01:17;;;;;;;0.32;0.20;;;;;;;;;;5079062;28;20237;-17
2022/04/03 13:03:47;;;;;;;1.05;0.30;;;;;;;;;;5077307;28;20236;-17
2022/04/03 13:06:15;;;;;;;0.25;0.20;;;;;;;;;;5081447;28;20228;-17
2022/04/03 13:08:44;;;;;;;1.10;0.30;;;;;;;;;;5080124;28;20269;-17
2022/04/03 13:11:11;;;;;;;0.40;0.20;;;;;;;;;;5079334;28;20228;-17
2022/04/03 13:13:39;;;;;;;0.30;0.20;;;;;;;;;;5078524;28;20225;-17
2022/04/03 13:16:06;;;;;;;0.73;0.40;;;;;;;;;;5077406;28;20235;-17
2022/04/03 13:18:33;;;;;;;0.20;0.20;;;;;;;;;;5075213;28;20302;-17
2022/04/03 13:21:02;;;;;;;0.35;0.30;;;;;;;;;;5079545;28;21115;-17
2022/04/03 13:23:30;;;;;;;0.52;0.20;;;;;;;;;;5078565;28;20241;-17
2022/04/03 13:25:57;;;;;;;0.55;0.30;;;;;;;;;;5081577;28;20232;-17
2022/04/03 13:28:25;;;;;;;0.50;0.20;;;;;;;;;;5078343;28;20324;-17
2022/04/03 13:30:52;;;;;;;0.65;0.20;;;;;;;;;;5079882;28;20228;-17
2022/04/03 13:33:19;;;;;;;0.25;0.20;;;;;;;;;;5079492;28;20235;-17
2022/04/03 13:35:47;;;;;;;0.40;0.20;;;;;;;;;;5080456;28;20230;-17
2022/04/03 13:38:16;;;;;;;1.17;0.30;;;;;;;;;;5079711;28;20233;-17
2022/04/03 13:40:43;;;;;;;0.55;0.30;;;;;;;;;;5081734;28;20585;-17
2022/04/03 13:43:11;;;;;;;0.38;0.30;;;;;;;;;;5076180;28;20229;-17
2022/04/03 13:48:24;;;;;;;0.57;0.20;;;;;;;;;;5084687;28;20325;-17
2022/04/03 13:50:53;;;;;;;1.58;0.50;;;;;;;;;;5085262;28;20225;-17
2022/04/03 13:53:22;;;;;;;0.80;0.30;;;;;;;;;;5082538;28;20319;-17
2022/04/03 13:55:49;;;;;;;0.85;0.30;;;;;;;;;;5078272;28;20269;-17
2022/04/03 13:58:17;;;;;;;0.57;0.38;;;;;;;;;;5084864;28;20229;-17
2022/04/03 14:00:45;;;;;;;1.25;0.40;;;;;;;;;;5084885;28;20422;-17
2022/04/03 14:03:12;;;;;;;1.48;0.40;;;;;;;;;;5082924;28;20938;-17
2022/04/03 14:05:40;;;;;;;0.60;0.30;;;;;;;;;;5083116;28;20220;-17
2022/04/03 14:08:08;;;;;;;0.75;0.30;;;;;;;;;;5075529;28;20640;-17
2022/04/03 14:10:37;;;;;;;0.63;0.40;;;;;;;;;;5077195;28;20229;-17
2022/04/03 14:13:04;;;;;;;1.25;0.55;;;;;;;;;;5078391;28;20221;-17
2022/04/03 14:15:31;;;;;;;1.92;0.38;;;;;;;;;;5084843;28;21056;-17
2022/04/03 14:17:59;;;;;;;0.75;0.30;;;;;;;;;;5082541;28;20598;-17
2022/04/03 14:20:26;;;;;;;0.82;0.40;;;;;;;;;;5084114;28;20237;-17
2022/04/03 14:22:53;;;;;;;0.30;0.30;;;;;;;;;;5082263;28;20728;-17
2022/04/03 14:25:21;;;;;;;0.50;0.22;;;;;;;;;;5083892;28;20245;-17
2022/04/03 14:27:49;;;;;;;0.85;0.40;;;;;;;;;;5083281;28;20688;-17
2022/04/03 14:30:17;;;;;;;0.57;0.40;;;;;;;;;;5081516;28;20838;-17
2022/04/03 14:32:46;;;;;;;1.23;0.40;;;;;;;;;;5084559;28;20228;-17
2022/04/03 14:35:14;;;;;;;0.52;0.30;;;;;;;;;;5078883;28;20235;-17
2022/04/03 14:37:42;;;;;;;0.38;0.22;;;;;;;;;;5082033;28;20228;-17
2022/04/03 14:40:09;;;;;;;0.82;0.50;;;;;;;;;;5081839;28;20272;-17
2022/04/03 14:42:37;;;;;;;0.73;0.30;;;;;;;;;;5081663;28;20230;-17
2022/04/03 14:45:14;;;;;;;1.45;0.30;;;;;;;;;;5080983;28;20229;-17
2022/04/03 14:47:42;;;;;;;0.88;0.38;;;;;;;;;;5082007;28;20236;-17
2022/04/03 14:50:10;;;;;;;0.32;0.30;;;;;;;;;;5084058;28;20870;-17
2022/04/03 14:52:38;;;;;;;0.85;0.30;;;;;;;;;;5081421;28;20229;-17